createdAt,value
2018-06-22T00:00:01.149Z,80.60
2018-06-22T00:02:28.714Z,80.60
2018-06-22T00:04:56.396Z,80.70
2018-06-22T00:07:23.946Z,81.00
2018-06-22T00:09:51.501Z,80.90
2018-06-22T00:12:19.057Z,81.30
2018-06-22T00:14:46.621Z,81.40
2018-06-22T00:17:14.417Z,81.60
2018-06-22T00:19:41.953Z,81.80
2018-06-22T00:22:09.542Z,82.00
2018-06-22T00:24:37.073Z,82.00
2018-06-22T00:27:04.805Z,81.80
2018-06-22T00:29:32.425Z,82.00
2018-06-22T00:32:00.011Z,81.70
2018-06-22T00:34:27.697Z,81.20
2018-06-22T00:36:55.302Z,81.00
2018-06-22T00:39:22.989Z,80.70
2018-06-22T00:41:50.584Z,80.50
2018-06-22T00:44:18.157Z,80.70
2018-06-22T00:46:45.748Z,80.30
2018-06-22T00:49:13.763Z,80.20
2018-06-22T00:51:41.366Z,80.20
2018-06-22T00:54:14.532Z,80.30
2018-06-22T00:56:42.142Z,80.40
2018-06-22T00:59:10.129Z,79.80
2018-06-22T01:01:37.693Z,79.20
2018-06-22T01:04:05.446Z,78.80
2018-06-22T01:06:33.053Z,78.70
2018-06-22T01:09:01.153Z,78.80
2018-06-22T01:11:28.770Z,78.80
2018-06-22T01:13:56.342Z,78.10
2018-06-22T01:16:23.889Z,77.40
2018-06-22T01:18:51.668Z,78.00
2018-06-22T01:21:19.262Z,77.80
2018-06-22T01:23:46.892Z,78.10
2018-06-22T01:26:14.465Z,78.50
2018-06-22T01:31:10.395Z,78.90
2018-06-22T01:33:37.982Z,77.90
2018-06-22T01:36:05.566Z,77.70
2018-06-22T01:38:33.250Z,78.00
2018-06-22T01:41:00.825Z,78.20
2018-06-22T01:43:28.661Z,77.50
2018-06-22T01:45:56.250Z,78.20
2018-06-22T01:48:23.839Z,78.00
2018-06-22T01:50:51.453Z,77.90
2018-06-22T01:53:19.036Z,78.00
2018-06-22T01:55:50.110Z,78.00
2018-06-22T01:58:18.920Z,78.00
2018-06-22T02:00:46.491Z,79.00
2018-06-22T02:03:14.091Z,78.30
2018-06-22T02:05:41.654Z,78.30
2018-06-22T02:08:09.213Z,78.20
2018-06-22T02:10:36.942Z,78.10
2018-06-22T02:15:32.344Z,78.20
2018-06-22T02:17:59.913Z,78.40
2018-06-22T02:20:28.289Z,78.60
2018-06-22T02:25:23.884Z,78.00
2018-06-22T02:27:51.441Z,78.80
2018-06-22T02:30:19.170Z,78.40
2018-06-22T02:32:46.757Z,78.50
2018-06-22T02:35:14.362Z,78.60
2018-06-22T02:37:41.938Z,79.20
2018-06-22T02:40:09.549Z,79.00
2018-06-22T02:42:37.670Z,79.00
2018-06-22T02:45:05.339Z,79.60
2018-06-22T02:47:33.087Z,79.30
2018-06-22T02:50:00.673Z,78.70
2018-06-22T02:52:28.414Z,79.00
2018-06-22T02:54:55.997Z,79.20
2018-06-22T02:57:23.914Z,79.80
2018-06-22T02:59:51.658Z,80.10
2018-06-22T03:02:19.138Z,80.50
2018-06-22T03:04:46.869Z,80.50
2018-06-22T03:07:14.433Z,80.30
2018-06-22T03:09:42.371Z,80.70
2018-06-22T03:12:09.966Z,81.20
2018-06-22T03:14:37.618Z,81.00
2018-06-22T03:19:35.154Z,81.40
2018-06-22T03:22:02.734Z,81.90
2018-06-22T03:24:30.333Z,81.60
2018-06-22T03:26:57.913Z,82.20
2018-06-22T03:29:25.499Z,82.20
2018-06-22T03:31:53.191Z,82.50
2018-06-22T03:34:20.814Z,82.80
2018-06-22T03:36:48.392Z,83.10
2018-06-22T03:39:15.961Z,83.00
2018-06-22T03:41:43.562Z,82.80
2018-06-22T03:44:11.257Z,82.60
2018-06-22T03:46:39.165Z,82.50
2018-06-22T03:49:06.693Z,82.30
2018-06-22T03:51:34.261Z,82.40
2018-06-22T03:54:01.802Z,82.90
2018-06-22T03:56:29.369Z,82.70
2018-06-22T03:58:56.942Z,82.80
2018-06-22T04:01:24.512Z,83.00
2018-06-22T04:03:52.362Z,83.20
2018-06-22T04:06:19.954Z,83.60
2018-06-22T04:08:47.505Z,83.60
2018-06-22T04:11:15.105Z,83.30
2018-06-22T04:13:43.137Z,83.50
2018-06-22T04:16:10.751Z,83.70
2018-06-22T04:18:38.312Z,83.60
2018-06-22T04:21:05.937Z,83.00
2018-06-22T04:23:33.553Z,83.20
2018-06-22T04:28:28.654Z,83.00
2018-06-22T04:30:56.206Z,83.00
2018-06-22T04:33:24.673Z,82.90
2018-06-22T04:35:52.242Z,82.40
2018-06-22T04:38:19.885Z,82.30
2018-06-22T04:40:47.470Z,81.80
2018-06-22T04:43:15.213Z,81.90
2018-06-22T04:45:42.757Z,81.80
2018-06-22T04:48:10.370Z,81.60
2018-06-22T04:50:37.917Z,81.40
2018-06-22T04:53:05.553Z,80.90
2018-06-22T04:55:33.117Z,81.30
2018-06-22T04:58:00.721Z,81.20
2018-06-22T05:00:28.364Z,81.60
2018-06-22T05:02:56.006Z,81.00
2018-06-22T05:05:23.545Z,81.00
2018-06-22T05:07:51.128Z,81.60
2018-06-22T05:10:18.670Z,80.70
2018-06-22T05:12:46.251Z,81.00
2018-06-22T05:15:13.817Z,80.90
2018-06-22T05:17:41.434Z,80.30
2018-06-22T05:20:08.985Z,80.60
2018-06-22T05:22:36.726Z,80.50
2018-06-22T05:25:04.475Z,80.30
2018-06-22T05:27:32.050Z,80.30
2018-06-22T05:29:59.637Z,80.40
2018-06-22T05:32:27.646Z,80.60
2018-06-22T05:34:55.200Z,80.10
2018-06-22T05:37:22.779Z,80.30
2018-06-22T05:39:50.324Z,80.00
2018-06-22T05:42:17.887Z,79.80
2018-06-22T05:44:45.453Z,79.90
2018-06-22T05:47:13.030Z,80.00
2018-06-22T05:49:40.691Z,79.80
2018-06-22T05:52:08.276Z,79.80
2018-06-22T05:54:35.871Z,79.30
2018-06-22T05:57:03.426Z,79.30
2018-06-22T05:59:31.007Z,79.30
2018-06-22T06:01:58.600Z,79.00
2018-06-22T06:04:26.193Z,78.60
2018-06-22T06:06:53.753Z,78.60
2018-06-22T06:09:21.329Z,78.30
2018-06-22T06:11:48.876Z,77.60
2018-06-22T06:14:16.645Z,77.50
2018-06-22T06:16:44.228Z,77.20
2018-06-22T06:19:12.633Z,77.10
2018-06-22T06:21:40.197Z,77.10
2018-06-22T06:24:07.889Z,76.60
2018-06-22T06:26:35.472Z,75.50
2018-06-22T06:29:03.205Z,75.60
2018-06-22T06:31:37.102Z,75.70
2018-06-22T06:34:04.699Z,76.40
2018-06-22T06:36:32.289Z,76.60
2018-06-22T06:39:00.329Z,75.40
2018-06-22T06:41:27.942Z,75.30
2018-06-22T06:43:55.526Z,74.80
2018-06-22T06:46:23.103Z,74.00
2018-06-22T06:48:50.661Z,73.80
2018-06-22T06:51:18.473Z,73.60
2018-06-22T06:53:46.181Z,73.90
2018-06-22T06:56:13.759Z,73.00
2018-06-22T06:58:41.406Z,72.80
2018-06-22T07:01:09.089Z,73.00
2018-06-22T07:03:36.699Z,72.00
2018-06-22T07:06:04.338Z,72.90
2018-06-22T07:08:32.462Z,72.40
2018-06-22T07:11:00.007Z,71.00
2018-06-22T07:13:27.540Z,71.80
2018-06-22T07:15:55.097Z,71.80
2018-06-22T07:18:22.652Z,71.70
2018-06-22T07:20:50.244Z,71.50
2018-06-22T07:23:17.910Z,71.20
2018-06-22T07:25:45.477Z,70.80
2018-06-22T07:28:13.241Z,70.60
2018-06-22T07:30:40.817Z,70.50
2018-06-22T07:33:08.356Z,71.20
2018-06-22T07:35:36.185Z,70.60
2018-06-22T07:38:03.725Z,69.90
2018-06-22T07:40:31.312Z,70.40
2018-06-22T07:42:59.855Z,70.40
2018-06-22T07:45:27.626Z,69.90
2018-06-22T07:47:55.234Z,69.50
2018-06-22T07:50:22.851Z,69.10
2018-06-22T07:52:50.457Z,68.10
2018-06-22T07:55:18.036Z,68.80
2018-06-22T07:57:45.572Z,68.10
2018-06-22T08:02:41.154Z,67.80
2018-06-22T08:05:08.725Z,68.10
2018-06-22T08:07:37.048Z,68.30
2018-06-22T08:10:04.661Z,68.30
2018-06-22T08:12:32.499Z,68.20
2018-06-22T08:15:00.271Z,68.10
2018-06-22T08:17:28.194Z,69.20
2018-06-22T08:19:55.777Z,68.00
2018-06-22T08:22:23.321Z,67.90
2018-06-22T08:27:43.017Z,67.70
2018-06-22T08:30:10.650Z,69.70
2018-06-22T08:32:38.301Z,69.10
2018-06-22T08:35:05.881Z,69.00
2018-06-22T08:37:33.450Z,69.00
2018-06-22T08:40:03.723Z,68.50
2018-06-22T08:42:31.257Z,68.00
2018-06-22T08:44:58.822Z,68.60
2018-06-22T08:47:26.474Z,68.20
2018-06-22T08:49:54.009Z,68.50
2018-06-22T08:52:21.625Z,66.90
2018-06-22T08:54:49.186Z,66.10
2018-06-22T08:57:16.873Z,67.10
2018-06-22T08:59:44.422Z,66.20
2018-06-22T09:02:11.968Z,65.20
2018-06-22T09:04:39.509Z,66.10
2018-06-22T09:07:08.029Z,64.90
2018-06-22T09:09:35.561Z,65.20
2018-06-22T09:12:03.249Z,64.80
2018-06-22T09:14:30.803Z,64.60
2018-06-22T09:16:59.253Z,63.10
2018-06-22T09:19:26.785Z,63.80
2018-06-22T09:21:54.409Z,63.40
2018-06-22T09:24:21.955Z,63.50
2018-06-22T09:26:49.529Z,62.10
2018-06-22T09:29:17.070Z,64.20
2018-06-22T09:31:44.614Z,62.50
2018-06-22T09:34:12.310Z,62.80
2018-06-22T09:36:39.948Z,63.30
2018-06-22T09:39:09.130Z,62.70
2018-06-22T09:41:36.848Z,63.40
2018-06-22T09:44:04.530Z,62.80
2018-06-22T09:46:32.192Z,63.20
2018-06-22T09:48:59.730Z,62.00
2018-06-22T09:51:27.333Z,62.20
2018-06-22T09:53:55.045Z,61.10
2018-06-22T09:56:22.605Z,61.20
2018-06-22T09:58:50.513Z,61.10
2018-06-22T10:01:18.114Z,61.20
2018-06-22T10:03:45.677Z,60.30
2018-06-22T10:06:13.589Z,59.90
2018-06-22T10:08:41.536Z,59.60
2018-06-22T10:11:09.110Z,59.00
2018-06-22T10:13:36.828Z,59.50
2018-06-22T10:16:04.493Z,60.60
2018-06-22T10:18:32.022Z,60.00
2018-06-22T10:20:59.702Z,59.90
2018-06-22T10:23:27.317Z,61.20
2018-06-22T10:25:54.851Z,61.00
2018-06-22T10:28:22.483Z,60.20
2018-06-22T10:30:50.130Z,60.90
2018-06-22T10:33:17.737Z,61.10
2018-06-22T10:35:45.413Z,61.10
2018-06-22T10:38:14.065Z,59.50
2018-06-22T10:40:41.738Z,59.50
2018-06-22T10:43:09.363Z,59.00
2018-06-22T10:45:36.953Z,60.00
2018-06-22T10:48:04.645Z,59.70
2018-06-22T10:50:34.802Z,58.00
2018-06-22T10:53:02.530Z,58.00
2018-06-22T10:55:31.629Z,58.70
2018-06-22T10:58:02.429Z,58.00
2018-06-22T11:00:31.073Z,58.30
2018-06-22T11:02:58.732Z,58.10
2018-06-22T11:05:26.297Z,58.20
2018-06-22T11:07:54.273Z,58.20
2018-06-22T11:10:21.814Z,58.40
2018-06-22T11:12:49.390Z,59.70
2018-06-22T11:15:16.913Z,59.30
2018-06-22T11:17:44.467Z,58.80
2018-06-22T11:20:12.293Z,58.00
2018-06-22T11:22:40.861Z,58.70
2018-06-22T11:25:08.413Z,59.50
2018-06-22T11:27:39.606Z,58.40
2018-06-22T11:30:13.897Z,58.00
2018-06-22T11:36:20.103Z,58.40
2018-06-22T11:38:49.808Z,59.90
2018-06-22T11:41:17.517Z,60.50
2018-06-22T11:43:45.490Z,59.80
2018-06-22T11:46:13.105Z,59.60
2018-06-22T11:48:40.721Z,58.80
2018-06-22T11:51:08.343Z,57.60
2018-06-22T11:53:35.886Z,58.30
2018-06-22T11:56:03.510Z,57.90
2018-06-22T11:58:31.062Z,58.90
2018-06-22T12:00:58.643Z,59.60
2018-06-22T12:03:26.204Z,59.20
2018-06-22T12:05:53.745Z,60.10
2018-06-22T12:08:21.413Z,61.40
2018-06-22T12:10:49.909Z,61.00
2018-06-22T12:13:17.555Z,60.80
2018-06-22T12:15:45.217Z,61.30
2018-06-22T12:18:13.198Z,59.40
2018-06-22T12:20:40.824Z,58.50
2018-06-22T12:23:09.303Z,56.10
2018-06-22T12:25:39.137Z,56.10
2018-06-22T12:28:06.760Z,57.20
2018-06-22T12:30:34.297Z,56.30
2018-06-22T12:33:01.921Z,57.80
2018-06-22T12:35:29.665Z,57.40
2018-06-22T12:37:57.307Z,58.10
2018-06-22T12:40:24.881Z,56.00
2018-06-22T12:42:52.431Z,56.00
2018-06-22T12:45:20.002Z,56.00
2018-06-22T12:47:48.245Z,55.80
2018-06-22T12:50:16.063Z,56.30
2018-06-22T12:52:43.995Z,55.30
2018-06-22T12:55:15.799Z,55.40
2018-06-22T12:57:47.617Z,54.80
2018-06-22T13:00:16.607Z,55.50
2018-06-22T13:02:46.100Z,54.30
2018-06-22T13:05:13.754Z,52.90
2018-06-22T13:07:50.946Z,53.10
2018-06-22T13:10:18.655Z,53.50
2018-06-22T13:12:47.681Z,54.00
2018-06-22T13:15:18.059Z,53.10
2018-06-22T13:17:46.749Z,53.70
2018-06-22T13:20:14.358Z,54.80
2018-06-22T13:22:41.952Z,53.40
2018-06-22T13:25:09.553Z,52.50
2018-06-22T13:27:37.105Z,51.70
2018-06-22T13:30:04.877Z,50.30
2018-06-22T13:32:32.433Z,51.70
2018-06-22T13:35:00.237Z,54.40
2018-06-22T13:37:27.792Z,55.10
2018-06-22T13:39:55.376Z,54.90
2018-06-22T13:42:22.985Z,56.70
2018-06-22T13:44:50.741Z,57.50
2018-06-22T13:47:18.601Z,59.00
2018-06-22T13:49:46.733Z,59.30
2018-06-22T13:52:14.429Z,58.70
2018-06-22T13:54:42.895Z,57.70
2018-06-22T13:57:10.568Z,59.00
2018-06-22T13:59:38.077Z,58.30
2018-06-22T14:02:06.234Z,57.00
2018-06-22T14:04:39.356Z,56.90
2018-06-22T14:07:07.255Z,54.20
2018-06-22T14:09:35.043Z,51.40
2018-06-22T14:12:02.786Z,52.50
2018-06-22T14:14:30.332Z,51.50
2018-06-22T14:16:57.881Z,50.80
2018-06-22T14:19:25.484Z,51.60
2018-06-22T14:21:53.153Z,52.90
2018-06-22T14:24:20.764Z,50.00
2018-06-22T14:26:48.317Z,46.10
2018-06-22T14:29:15.910Z,41.70
2018-06-22T14:31:43.569Z,39.80
2018-06-22T14:34:11.113Z,43.50
2018-06-22T14:36:38.686Z,44.00
2018-06-22T14:39:07.001Z,42.50
2018-06-22T14:41:34.657Z,45.30
2018-06-22T14:44:02.312Z,48.00
2018-06-22T14:46:29.866Z,48.30
2018-06-22T14:48:57.430Z,50.50
2018-06-22T14:51:25.229Z,52.20
2018-06-22T14:53:58.416Z,54.60
2018-06-22T14:56:32.169Z,55.30
2018-06-22T14:59:05.309Z,54.20
2018-06-22T15:01:38.658Z,48.40
2018-06-22T15:04:11.961Z,50.10
2018-06-22T15:06:45.149Z,49.70
2018-06-22T15:09:12.747Z,50.80
2018-06-22T15:11:41.025Z,51.50
2018-06-22T15:14:08.561Z,52.00
2018-06-22T15:16:36.145Z,53.20
2018-06-22T15:19:03.681Z,54.40
2018-06-22T15:21:31.349Z,49.60
2018-06-22T15:23:58.917Z,46.00
2018-06-22T15:26:26.619Z,43.20
2018-06-22T15:28:54.249Z,46.60
2018-06-22T15:31:22.014Z,50.00
2018-06-22T15:33:55.169Z,53.00
2018-06-22T15:36:28.633Z,54.30
2018-06-22T15:39:01.782Z,55.40
2018-06-22T15:41:35.196Z,54.50
2018-06-22T15:44:08.293Z,53.80
2018-06-22T15:46:41.550Z,54.10
2018-06-22T15:49:14.798Z,54.40
2018-06-22T15:51:48.939Z,53.60
2018-06-22T15:54:22.547Z,50.20
2018-06-22T15:56:50.505Z,50.50
2018-06-22T15:59:18.374Z,52.60
2018-06-22T16:01:45.965Z,53.50
2018-06-22T16:04:13.597Z,56.00
2018-06-22T16:06:41.173Z,58.50
2018-06-22T16:09:09.873Z,60.20
2018-06-22T16:11:37.466Z,60.50
2018-06-22T16:14:10.966Z,57.90
2018-06-22T16:16:44.478Z,55.80
2018-06-22T16:19:17.752Z,52.90
2018-06-22T16:21:52.145Z,46.50
2018-06-22T16:24:30.376Z,43.20
2018-06-22T16:27:03.820Z,40.80
2018-06-22T16:29:31.406Z,38.90
2018-06-22T16:31:59.522Z,38.40
2018-06-22T16:34:27.381Z,38.20
2018-06-22T16:36:55.522Z,37.70
2018-06-22T16:39:23.229Z,36.10
2018-06-22T16:41:50.874Z,38.30
2018-06-22T16:44:18.431Z,38.80
2018-06-22T16:46:46.202Z,39.10
2018-06-22T16:49:13.888Z,37.60
2018-06-22T16:51:41.762Z,37.30
2018-06-22T16:54:09.405Z,36.60
2018-06-22T16:56:37.002Z,37.80
2018-06-22T16:59:04.750Z,40.20
2018-06-22T17:01:32.380Z,43.30
2018-06-22T17:03:59.929Z,45.60
2018-06-22T17:06:32.225Z,48.50
2018-06-22T17:09:05.458Z,51.70
2018-06-22T17:11:40.082Z,52.90
2018-06-22T17:14:13.371Z,53.70
2018-06-22T17:16:46.962Z,54.30
2018-06-22T17:19:20.460Z,55.30
2018-06-22T17:21:48.514Z,54.90
2018-06-22T17:24:16.271Z,55.20
2018-06-22T17:26:43.789Z,56.60
2018-06-22T17:29:11.349Z,56.70
2018-06-22T17:31:38.913Z,56.40
2018-06-22T17:34:06.498Z,57.10
2018-06-22T17:36:34.155Z,56.90
2018-06-22T17:39:03.035Z,57.40
2018-06-22T17:41:30.660Z,56.90
2018-06-22T17:44:00.393Z,56.60
2018-06-22T17:46:27.946Z,57.10
2018-06-22T17:48:55.520Z,58.10
2018-06-22T17:51:23.257Z,59.20
2018-06-22T17:53:50.814Z,59.20
2018-06-22T17:56:24.009Z,59.50
2018-06-22T17:58:57.300Z,60.00
2018-06-22T18:01:31.462Z,61.50
2018-06-22T18:04:04.681Z,61.80
2018-06-22T18:06:34.306Z,62.80
2018-06-22T18:09:01.942Z,63.70
2018-06-22T18:11:35.341Z,63.40
2018-06-22T18:14:03.077Z,64.10
2018-06-22T18:16:30.597Z,64.40
2018-06-22T18:18:58.252Z,64.50
2018-06-22T18:21:25.838Z,64.70
2018-06-22T18:23:53.545Z,65.00
2018-06-22T18:26:21.448Z,65.60
2018-06-22T18:28:49.113Z,65.60
2018-06-22T18:31:17.227Z,65.50
2018-06-22T18:33:44.914Z,64.70
2018-06-22T18:36:13.286Z,65.50
2018-06-22T18:38:40.890Z,65.40
2018-06-22T18:41:08.497Z,65.90
2018-06-22T18:43:41.700Z,66.20
2018-06-22T18:46:10.237Z,66.00
2018-06-22T18:48:38.271Z,66.00
2018-06-22T18:51:06.506Z,66.00
2018-06-22T18:53:39.897Z,65.70
2018-06-22T18:56:13.001Z,66.10
2018-06-22T18:58:46.230Z,66.10
2018-06-22T19:01:19.941Z,66.90
2018-06-22T19:03:48.706Z,66.40
2018-06-22T19:06:16.710Z,66.40
2018-06-22T19:08:44.290Z,66.80
2018-06-22T19:11:11.886Z,66.40
2018-06-22T19:13:39.738Z,66.30
2018-06-22T19:16:07.473Z,67.10
2018-06-22T19:18:35.091Z,67.30
2018-06-22T19:21:02.766Z,68.10
2018-06-22T19:23:30.334Z,68.30
2018-06-22T19:25:58.029Z,68.80
2018-06-22T19:28:25.561Z,68.70
2018-06-22T19:30:53.334Z,69.50
2018-06-22T19:33:20.873Z,69.90
2018-06-22T19:35:48.437Z,70.40
2018-06-22T19:38:15.978Z,70.90
2018-06-22T19:40:43.565Z,71.40
2018-06-22T19:43:17.331Z,72.00
2018-06-22T19:45:50.497Z,72.00
2018-06-22T19:48:29.720Z,72.30
2018-06-22T19:51:03.405Z,73.10
2018-06-22T19:53:36.513Z,73.50
2018-06-22T19:56:04.223Z,73.40
2018-06-22T19:58:31.757Z,73.80
2018-06-22T20:00:59.941Z,74.30
2018-06-22T20:03:27.558Z,74.70
2018-06-22T20:05:55.110Z,75.40
2018-06-22T20:08:22.789Z,75.50
2018-06-22T20:10:51.249Z,76.00
2018-06-22T20:13:18.932Z,76.30
2018-06-22T20:15:46.531Z,76.60
2018-06-22T20:18:14.075Z,76.70
2018-06-22T20:20:41.638Z,77.90
2018-06-22T20:23:09.250Z,77.50
2018-06-22T20:25:42.493Z,77.50
2018-06-22T20:28:10.133Z,77.80
2018-06-22T20:30:37.792Z,78.50
2018-06-22T20:33:06.583Z,78.90
2018-06-22T20:35:39.713Z,79.00
2018-06-22T20:38:12.821Z,79.10
2018-06-22T20:40:47.181Z,79.30
2018-06-22T20:43:21.121Z,79.60
2018-06-22T20:45:50.593Z,79.00
2018-06-22T20:48:23.713Z,79.30
2018-06-22T20:50:51.944Z,79.70
2018-06-22T20:53:19.839Z,79.80
2018-06-22T20:55:47.429Z,80.00
2018-06-22T20:58:15.964Z,80.20
2018-06-22T21:00:43.730Z,80.40
2018-06-22T21:03:11.352Z,80.60
2018-06-22T21:05:38.961Z,80.40
2018-06-22T21:08:06.630Z,80.70
2018-06-22T21:10:34.204Z,80.90
2018-06-22T21:13:02.100Z,80.90
2018-06-22T21:15:29.875Z,81.00
2018-06-22T21:17:57.518Z,81.30
2018-06-22T21:20:25.066Z,81.60
2018-06-22T21:22:52.710Z,81.90
2018-06-22T21:25:20.266Z,82.30
2018-06-22T21:27:53.589Z,82.70
2018-06-22T21:30:26.805Z,82.70
2018-06-22T21:33:00.070Z,82.90
2018-06-22T21:35:33.140Z,82.80
2018-06-22T21:38:06.921Z,83.20
2018-06-22T21:40:35.900Z,83.20
2018-06-22T21:43:03.601Z,83.00
2018-06-22T21:45:31.152Z,83.30
2018-06-22T21:47:58.796Z,83.20
2018-06-22T21:50:26.689Z,83.70
2018-06-22T21:52:54.274Z,83.50
2018-06-22T21:55:21.838Z,83.20
2018-06-22T21:57:49.401Z,83.50
2018-06-22T22:00:27.686Z,83.40
2018-06-22T22:02:56.218Z,83.80
2018-06-22T22:05:24.058Z,84.10
2018-06-22T22:07:51.633Z,84.30
2018-06-22T22:10:26.029Z,83.90
2018-06-22T22:12:53.629Z,84.00
2018-06-22T22:15:21.201Z,84.30
2018-06-22T22:17:48.911Z,84.70
2018-06-22T22:20:16.633Z,84.90
2018-06-22T22:22:44.515Z,85.00
2018-06-22T22:25:12.209Z,85.20
2018-06-22T22:27:39.802Z,85.40
2018-06-22T22:30:07.590Z,85.70
2018-06-22T22:32:35.254Z,85.60
2018-06-22T22:35:02.863Z,86.00
2018-06-22T22:37:30.417Z,86.20
2018-06-22T22:39:58.064Z,85.90
2018-06-22T22:42:25.590Z,85.70
2018-06-22T22:44:53.138Z,86.30
2018-06-22T22:47:20.710Z,86.20
2018-06-22T22:49:48.276Z,86.50
2018-06-22T22:52:16.212Z,87.00
2018-06-22T22:54:43.789Z,87.40
2018-06-22T22:57:11.393Z,87.70
2018-06-22T22:59:39.566Z,87.90
2018-06-22T23:02:08.113Z,88.10
2018-06-22T23:04:35.994Z,88.30
2018-06-22T23:07:04.602Z,88.20
2018-06-22T23:09:32.593Z,88.80
2018-06-22T23:12:00.322Z,89.20
2018-06-22T23:14:28.841Z,89.40
2018-06-22T23:16:56.753Z,89.40
2018-06-22T23:19:24.452Z,89.50
2018-06-22T23:21:52.364Z,89.50
2018-06-22T23:24:20.029Z,89.60
2018-06-22T23:26:47.600Z,89.60
2018-06-22T23:29:15.224Z,89.50
2018-06-22T23:34:10.349Z,89.60
2018-06-22T23:36:37.917Z,89.60
2018-06-22T23:39:07.667Z,90.00
2018-06-22T23:41:35.853Z,90.20
2018-06-22T23:44:03.825Z,90.20
2018-06-22T23:46:31.357Z,90.20
2018-06-22T23:48:58.997Z,90.20
2018-06-22T23:51:26.529Z,90.20
2018-06-22T23:53:54.258Z,90.40
2018-06-22T23:56:21.865Z,90.40
2018-06-22T23:58:49.453Z,90.60
